This is the latest recevied weather packets stored in our database for station/object HB9BTL-13. If no packets are shown the sender has not sent any weather packets the latest 10 day(s).
| Time | Temp. | Humidity | Pressure | Rain* | Wind** | Luminosity | Snow |
|---|---|---|---|---|---|---|---|
| 1777727422 | 23.89° C | 46% | 1019.3 hPa | - | - | - | - |
| 1777726517 | 23.89° C | 45% | 1019.5 hPa | - | - | - | - |
| 1777725611 | 23.33° C | 48% | 1019.7 hPa | - | - | - | - |
| 1777724706 | 23.33° C | 49% | 1020 hPa | - | - | - | - |
| 1777723800 | 22.78° C | 50% | 1020.2 hPa | - | - | - | - |
| 1777722895 | 23.33° C | 47% | 1020.4 hPa | - | - | - | - |
| 1777721990 | 22.22° C | 52% | 1020.7 hPa | - | - | - | - |
| 1777721084 | 21.67° C | 50% | 1021 hPa | - | - | - | - |
| 1777720179 | 21.11° C | 55% | 1021.2 hPa | - | - | - | - |
| 1777719274 | 21.11° C | 56% | 1021.5 hPa | - | - | - | - |
| 1777718368 | 21.11° C | 56% | 1021.6 hPa | - | - | - | - |
| 1777717463 | 20.56° C | 57% | 1021.8 hPa | - | - | - | - |
| 1777716558 | 20° C | 58% | 1022.1 hPa | - | - | - | - |
| 1777715652 | 20° C | 58% | 1022.4 hPa | - | - | - | - |
| 1777714747 | 18.89° C | 60% | 1022.7 hPa | - | - | - | - |
| 1777713841 | 18.33° C | 61% | 1022.9 hPa | - | - | - | - |
| 1777712936 | 18.33° C | 59% | 1023.1 hPa | - | - | - | - |
| 1777712031 | 17.78° C | 61% | 1023.2 hPa | - | - | - | - |
| 1777711125 | 17.22° C | 63% | 1023.3 hPa | - | - | - | - |
| 1777710220 | 17.22° C | 62% | 1023.4 hPa | - | - | - | - |
| 1777709315 | 16.67° C | 62% | 1023.5 hPa | - | - | - | - |
| 1777708409 | 16.11° C | 61% | 1023.6 hPa | - | - | - | - |
| 1777707504 | 15.56° C | 64% | 1023.7 hPa | - | - | - | - |
| 1777706598 | 15° C | 65% | 1023.7 hPa | - | - | - | - |
| 1777705693 | 13.89° C | 66% | 1023.8 hPa | - | - | - | - |
* Rain since midnight (hover to see other rain measurements)
** Current wind speed in m/s (hover to see current wind gust speed)